Time;durP1;ratioP1;P1;durP2;ratioP2;P2;SDS_P1;SDS_P2;PMS_P1;PMS_P2;Temp;Humidity;BMP_temperature;BMP_pressure;BME280_temperature;BME280_humidity;BME280_pressure;Samples;Min_cycle;Max_cycle;Signal;HPM_P1;HPM_P2
2022/10/29 00:00:49;;;;;;;1.50;0.90;;;17.10;98.20;;;;;;5006177;28;20461;-76
2022/10/29 00:03:16;;;;;;;1.50;0.90;;;17.10;98.20;;;;;;4999656;28;20503;-77
2022/10/29 00:05:43;;;;;;;1.53;0.90;;;17.10;98.20;;;;;;5012076;28;20890;-75
2022/10/29 00:08:10;;;;;;;1.53;0.90;;;17.10;98.20;;;;;;5016670;28;20562;-77
2022/10/29 00:10:37;;;;;;;1.57;0.90;;;17.10;98.20;;;;;;5011930;28;20484;-77
2022/10/29 00:13:05;;;;;;;2.63;2.13;;;17.10;98.20;;;;;;5014658;28;20530;-75
2022/10/29 00:15:32;;;;;;;1.50;0.90;;;17.10;98.20;;;;;;4992100;28;20825;-77
2022/10/29 00:17:59;;;;;;;1.50;0.90;;;17.10;98.20;;;;;;5015282;28;20483;-77
2022/10/29 00:20:26;;;;;;;1.53;0.90;;;17.10;98.20;;;;;;4998979;28;20945;-74
2022/10/29 00:22:54;;;;;;;1.57;1.00;;;17.10;98.20;;;;;;5016919;28;20478;-75
2022/10/29 00:25:21;;;;;;;1.57;0.90;;;17.10;98.20;;;;;;4995517;28;20503;-75
2022/10/29 00:27:48;;;;;;;1.57;1.00;;;17.10;98.20;;;;;;5011793;28;20950;-77
2022/10/29 00:30:16;;;;;;;1.57;0.90;;;17.10;98.20;;;;;;5011066;28;20491;-76
2022/10/29 00:32:43;;;;;;;1.50;0.90;;;17.10;98.20;;;;;;5015290;28;20552;-77
2022/10/29 00:35:10;;;;;;;1.53;1.00;;;17.10;98.20;;;;;;4993379;28;20493;-77
2022/10/29 00:37:37;;;;;;;1.57;0.90;;;17.10;98.20;;;;;;5011432;28;20483;-77
2022/10/29 00:40:04;;;;;;;1.57;1.00;;;17.10;98.20;;;;;;5012753;28;20467;-76
2022/10/29 00:42:31;;;;;;;1.50;0.90;;;17.10;98.20;;;;;;5007485;28;20484;-77
2022/10/29 00:44:58;;;;;;;1.53;1.00;;;17.10;98.20;;;;;;5013627;28;20488;-75
2022/10/29 00:47:30;;;;;;;1.50;0.90;;;17.00;98.20;;;;;;4997498;28;20538;-76
2022/10/29 00:50:00;;;;;;;1.50;1.00;;;17.00;98.20;;;;;;5001759;28;20457;-77
2022/10/29 00:52:30;;;;;;;1.57;0.90;;;17.00;98.20;;;;;;5010283;28;21036;-77
2022/10/29 00:55:00;;;;;;;1.60;1.00;;;17.00;98.20;;;;;;5002715;28;20538;-77
2022/10/29 00:57:30;;;;;;;1.57;1.00;;;17.00;98.20;;;;;;5019828;28;20482;-76
2022/10/29 00:59:57;;;;;;;1.50;0.90;;;17.00;98.20;;;;;;5015511;28;21136;-77
2022/10/29 01:02:25;;;;;;;1.50;0.90;;;16.90;98.20;;;;;;5012179;28;20487;-78
2022/10/29 01:04:54;;;;;;;1.53;0.90;;;16.90;98.20;;;;;;4997243;28;20484;-75
2022/10/29 01:07:22;;;;;;;1.50;0.90;;;16.90;98.20;;;;;;5011301;28;20486;-75
2022/10/29 01:09:49;;;;;;;1.53;1.00;;;16.90;98.20;;;;;;4997589;28;20457;-77
2022/10/29 01:12:33;;;;;;;1.50;1.00;;;16.90;98.20;;;;;;5014853;28;20559;-77
2022/10/29 01:15:07;;;;;;;1.53;1.00;;;16.90;98.20;;;;;;5014316;28;20506;-75
2022/10/29 01:17:44;;;;;;;1.53;0.90;;;16.80;98.20;;;;;;5013716;28;20514;-78
2022/10/29 01:20:40;;;;;;;1.53;0.90;;;16.80;98.20;;;;;;4991677;28;20496;-75
2022/10/29 01:23:28;;;;;;;1.50;1.00;;;16.80;98.20;;;;;;5015162;28;20484;-75
2022/10/29 01:26:38;;;;;;;1.57;1.00;;;16.80;98.20;;;;;;4984786;28;20497;-76
2022/10/29 01:29:20;;;;;;;1.60;1.00;;;16.80;98.20;;;;;;5029115;28;20467;-78
2022/10/29 01:31:53;;;;;;;1.60;1.00;;;16.80;98.20;;;;;;5007569;28;20489;-76
2022/10/29 01:34:43;;;;;;;1.60;1.00;;;16.70;98.20;;;;;;5005395;28;20489;-77
2022/10/29 01:37:41;;;;;;;1.60;1.00;;;16.70;98.20;;;;;;5002111;28;20480;-76
2022/10/29 01:40:17;;;;;;;1.50;0.90;;;16.70;98.20;;;;;;4999472;28;20467;-78
2022/10/29 01:42:54;;;;;;;1.60;1.00;;;16.70;98.20;;;;;;5010851;28;21022;-77
2022/10/29 01:45:27;;;;;;;1.60;1.00;;;16.60;98.20;;;;;;4990403;28;20509;-78
2022/10/29 01:47:59;;;;;;;1.60;0.90;;;16.60;98.20;;;;;;5026850;28;20478;-76
2022/10/29 01:50:27;;;;;;;1.60;1.00;;;16.60;98.20;;;;;;5009647;28;20467;-75
2022/10/29 01:52:56;;;;;;;1.57;0.93;;;16.60;98.20;;;;;;5012872;28;20488;-76
2022/10/29 01:55:32;;;;;;;1.57;0.90;;;16.60;98.20;;;;;;4997594;28;20599;-75
2022/10/29 01:58:08;;;;;;;1.53;0.97;;;16.60;98.20;;;;;;5027268;28;20486;-75
2022/10/29 02:00:57;;;;;;;1.60;1.00;;;16.60;98.20;;;;;;5008808;28;20468;-75
2022/10/29 02:03:40;;;;;;;1.60;0.90;;;16.60;98.20;;;;;;4977519;28;20560;-74
2022/10/29 02:06:35;;;;;;;1.50;0.90;;;16.60;98.20;;;;;;4978204;28;20487;-75
2022/10/29 02:09:33;;;;;;;1.57;1.00;;;16.60;98.20;;;;;;5002129;28;20550;-74
2022/10/29 02:12:11;;;;;;;1.57;1.00;;;16.60;98.20;;;;;;5016552;28;20498;-74
2022/10/29 02:14:52;;;;;;;1.53;1.00;;;16.60;98.20;;;;;;5024474;28;20483;-77
2022/10/29 02:17:20;;;;;;;1.60;0.97;;;16.60;98.20;;;;;;5009303;28;21061;-75
2022/10/29 02:19:49;;;;;;;1.57;1.00;;;16.60;98.20;;;;;;5012462;28;20500;-76
2022/10/29 02:22:16;;;;;;;1.53;0.97;;;16.60;98.20;;;;;;5008994;28;20487;-76
2022/10/29 02:24:46;;;;;;;1.57;1.00;;;16.60;98.20;;;;;;5002400;28;20491;-76
2022/10/29 02:27:18;;;;;;;1.60;1.00;;;16.60;98.20;;;;;;4976916;28;20575;-75
2022/10/29 02:29:48;;;;;;;1.57;1.00;;;16.60;98.20;;;;;;4988856;28;20495;-75
2022/10/29 02:32:30;;;;;;;1.60;1.00;;;16.60;98.20;;;;;;5011299;28;20569;-75
2022/10/29 02:35:08;;;;;;;1.57;1.00;;;16.60;98.20;;;;;;5000282;28;20945;-75
2022/10/29 02:37:46;;;;;;;1.57;0.90;;;16.60;98.20;;;;;;5013177;28;20529;-75
2022/10/29 02:40:14;;;;;;;1.60;0.90;;;16.50;98.20;;;;;;5003548;28;20472;-75
2022/10/29 02:42:42;;;;;;;1.60;1.00;;;16.50;98.20;;;;;;5031352;28;20486;-76
2022/10/29 02:45:10;;;;;;;1.57;1.00;;;16.50;98.20;;;;;;5013532;28;20489;-76
2022/10/29 02:47:38;;;;;;;1.60;1.00;;;16.50;98.20;;;;;;5014801;28;20757;-75
2022/10/29 02:50:09;;;;;;;1.57;1.00;;;16.50;98.20;;;;;;5015967;28;20472;-75
2022/10/29 02:52:37;;;;;;;1.50;0.93;;;16.50;98.20;;;;;;5015196;28;20487;-75
2022/10/29 02:55:05;;;;;;;1.50;1.00;;;16.50;98.20;;;;;;5004802;28;20485;-76
2022/10/29 02:57:33;;;;;;;1.60;1.00;;;16.50;98.20;;;;;;5017131;28;20475;-76
2022/10/29 03:00:01;;;;;;;1.57;1.00;;;16.50;98.20;;;;;;5004697;28;20590;-76
2022/10/29 03:02:31;;;;;;;1.60;1.00;;;16.50;98.20;;;;;;5013420;28;20578;-75
2022/10/29 03:04:58;;;;;;;1.60;1.00;;;16.40;98.20;;;;;;4996258;28;20481;-76
2022/10/29 03:07:27;;;;;;;1.57;0.90;;;16.40;98.20;;;;;;5018378;28;20584;-76
2022/10/29 03:09:54;;;;;;;3.40;2.50;;;16.40;98.20;;;;;;5006577;28;20473;-76
2022/10/29 03:12:30;;;;;;;1.50;0.97;;;16.40;98.20;;;;;;4990165;28;20840;-75
2022/10/29 03:14:57;;;;;;;1.53;0.97;;;16.40;98.20;;;;;;5002332;28;20484;-76
2022/10/29 03:17:24;;;;;;;1.60;1.00;;;16.40;98.20;;;;;;5010548;28;20569;-75
2022/10/29 03:19:51;;;;;;;1.60;1.00;;;16.40;98.20;;;;;;5013312;28;20472;-76
2022/10/29 03:22:18;;;;;;;1.60;1.00;;;16.40;98.20;;;;;;4997287;28;21085;-77
2022/10/29 03:24:47;;;;;;;1.57;0.90;;;16.40;98.20;;;;;;5010085;28;21071;-76
2022/10/29 03:27:25;;;;;;;1.53;0.90;;;16.40;98.20;;;;;;5019842;28;20484;-74
2022/10/29 03:32:58;;;;;;;1.53;0.90;;;16.50;98.20;;;;;;4932697;28;20483;-75
2022/10/29 03:35:25;;;;;;;1.60;1.10;;;16.50;98.20;;;;;;5001320;28;20488;-76
2022/10/29 03:37:52;;;;;;;1.50;1.00;;;16.50;98.20;;;;;;5006364;28;20565;-75
2022/10/29 03:40:21;;;;;;;1.60;1.00;;;16.40;98.20;;;;;;5029248;28;20463;-75
2022/10/29 03:42:48;;;;;;;1.60;1.00;;;16.40;98.20;;;;;;5014106;28;20995;-76
2022/10/29 03:45:14;;;;;;;1.57;0.97;;;16.40;98.20;;;;;;5019317;28;20564;-75
2022/10/29 03:47:41;;;;;;;1.57;1.00;;;16.40;98.20;;;;;;5010492;28;20479;-75
2022/10/29 03:50:09;;;;;;;1.60;1.00;;;16.30;98.20;;;;;;5009298;28;20495;-76
2022/10/29 03:52:37;;;;;;;1.50;0.90;;;16.30;98.20;;;;;;5007710;28;20792;-76
2022/10/29 03:55:05;;;;;;;1.60;1.00;;;16.30;98.20;;;;;;5014503;28;20511;-75
2022/10/29 03:57:34;;;;;;;1.57;0.90;;;16.20;98.20;;;;;;4996961;28;20492;-76
2022/10/29 04:00:03;;;;;;;1.57;1.00;;;16.20;98.20;;;;;;5016032;28;20470;-75
2022/10/29 04:02:31;;;;;;;1.60;0.90;;;16.20;98.20;;;;;;5015389;28;20497;-76
2022/10/29 04:04:57;;;;;;;1.53;0.90;;;16.20;98.20;;;;;;5015174;28;20520;-75
2022/10/29 04:07:24;;;;;;;1.60;1.00;;;16.20;98.20;;;;;;5010803;28;20571;-76
2022/10/29 04:09:51;;;;;;;1.60;1.00;;;16.20;98.20;;;;;;5011044;28;20479;-75
2022/10/29 04:12:18;;;;;;;1.60;0.90;;;16.10;98.20;;;;;;5006734;28;20878;-76
2022/10/29 04:14:47;;;;;;;1.60;1.00;;;16.10;98.20;;;;;;5013656;28;20483;-75
2022/10/29 04:17:14;;;;;;;1.87;1.67;;;16.10;98.20;;;;;;5007985;28;20593;-76
2022/10/29 04:19:41;;;;;;;1.57;1.00;;;16.10;98.20;;;;;;5010729;28;20476;-75
2022/10/29 04:22:08;;;;;;;1.80;1.50;;;16.10;98.20;;;;;;4998101;28;20484;-75
2022/10/29 04:24:36;;;;;;;1.60;1.00;;;16.10;98.20;;;;;;5010901;28;20906;-75
2022/10/29 04:27:03;;;;;;;1.70;1.40;;;16.10;98.20;;;;;;4998334;28;20472;-75
2022/10/29 04:29:30;;;;;;;1.60;1.00;;;16.10;98.20;;;;;;5013072;28;21044;-75
2022/10/29 04:31:58;;;;;;;1.60;1.10;;;16.10;98.20;;;;;;5008909;28;20983;-75
2022/10/29 04:34:25;;;;;;;1.60;1.00;;;16.10;98.20;;;;;;5008415;28;20613;-74
2022/10/29 04:36:53;;;;;;;1.57;0.90;;;16.20;98.20;;;;;;4992213;28;20484;-75
2022/10/29 04:39:19;;;;;;;1.60;1.00;;;16.20;98.20;;;;;;5006912;28;20995;-74
2022/10/29 04:41:48;;;;;;;1.60;1.00;;;16.20;98.20;;;;;;5008976;28;20495;-75
2022/10/29 04:44:15;;;;;;;1.50;0.90;;;16.20;98.20;;;;;;5003448;28;20572;-75
2022/10/29 04:46:42;;;;;;;1.60;0.97;;;16.20;98.20;;;;;;5009288;28;20482;-74
2022/10/29 04:49:10;;;;;;;1.57;0.90;;;16.20;98.20;;;;;;5020751;28;20455;-76
2022/10/29 04:51:38;;;;;;;1.53;0.90;;;16.20;98.20;;;;;;5008518;28;20483;-75
2022/10/29 04:54:05;;;;;;;1.60;1.00;;;16.20;98.20;;;;;;5014037;28;20497;-76
2022/10/29 04:56:31;;;;;;;1.60;1.00;;;16.20;98.20;;;;;;4997924;28;20522;-74
2022/10/29 04:58:58;;;;;;;1.53;1.00;;;16.20;98.20;;;;;;5008921;28;20977;-74
2022/10/29 05:01:25;;;;;;;1.50;1.00;;;16.20;98.20;;;;;;5004854;28;20471;-75
2022/10/29 05:03:53;;;;;;;1.60;1.10;;;16.20;98.20;;;;;;5017718;28;20810;-75
2022/10/29 05:06:21;;;;;;;1.60;0.90;;;16.20;98.20;;;;;;4997971;28;20491;-75
2022/10/29 05:08:48;;;;;;;1.60;1.00;;;16.20;98.20;;;;;;5003824;28;20460;-75
2022/10/29 05:11:15;;;;;;;1.60;1.03;;;16.20;98.20;;;;;;5003161;28;20479;-75
2022/10/29 05:13:44;;;;;;;1.57;0.93;;;16.20;98.20;;;;;;5022644;28;20487;-75
2022/10/29 05:16:11;;;;;;;1.57;1.00;;;16.20;98.20;;;;;;5000975;28;21272;-76
2022/10/29 05:18:38;;;;;;;1.60;1.00;;;16.20;98.20;;;;;;5022917;28;20475;-76
2022/10/29 05:21:11;;;;;;;1.60;1.00;;;16.20;98.20;;;;;;5023032;22;20527;-82
2022/10/29 05:27:12;;;;;;;1.60;1.00;;;16.30;98.20;;;;;;5009314;28;20482;-83
2022/10/29 05:29:39;;;;;;;1.60;1.00;;;16.30;98.20;;;;;;5027040;28;20463;-79
2022/10/29 05:32:06;;;;;;;1.60;1.00;;;16.30;98.20;;;;;;4998956;28;20629;-80
2022/10/29 05:34:33;;;;;;;1.57;1.00;;;16.30;98.20;;;;;;5011373;28;20917;-80
2022/10/29 05:37:00;;;;;;;1.57;0.97;;;16.30;98.20;;;;;;4999305;28;20550;-82
2022/10/29 05:39:27;;;;;;;1.57;1.00;;;16.30;98.20;;;;;;5010094;28;20471;-81
2022/10/29 05:41:53;;;;;;;1.57;0.93;;;16.30;98.20;;;;;;4996556;28;20499;-81
2022/10/29 05:44:22;;;;;;;1.60;1.00;;;16.30;98.20;;;;;;5011103;28;20471;-81
2022/10/29 05:46:49;;;;;;;1.57;0.90;;;16.30;98.20;;;;;;5000002;28;20487;-82
2022/10/29 05:49:17;;;;;;;1.53;0.90;;;16.30;98.20;;;;;;5011591;28;20465;-81
2022/10/29 05:51:43;;;;;;;1.57;1.00;;;16.30;98.20;;;;;;5004833;28;20503;-80
2022/10/29 05:54:10;;;;;;;1.57;1.00;;;16.30;98.20;;;;;;5017222;28;20483;-80
2022/10/29 05:56:40;;;;;;;1.57;0.90;;;16.30;98.20;;;;;;4999712;28;20511;-83
2022/10/29 05:59:07;;;;;;;1.60;0.93;;;16.30;98.20;;;;;;5008565;28;20474;-81
2022/10/29 06:01:35;;;;;;;1.53;0.93;;;16.30;98.20;;;;;;4998313;28;20487;-83
2022/10/29 06:04:02;;;;;;;1.60;1.00;;;16.20;98.20;;;;;;5007851;28;20460;-82
2022/10/29 06:06:29;;;;;;;1.57;1.00;;;16.20;98.20;;;;;;4999129;28;20464;-82
2022/10/29 06:09:08;;;;;;;1.60;0.97;;;16.20;98.20;;;;;;5011483;28;20726;-84
2022/10/29 06:11:35;;;;;;;1.53;1.00;;;16.20;98.20;;;;;;5000597;28;20891;-82
2022/10/29 06:14:02;;;;;;;2.80;2.60;;;16.30;98.20;;;;;;5006184;28;20575;-83
2022/10/29 06:16:29;;;;;;;1.53;1.00;;;16.30;98.20;;;;;;5002115;28;20475;-81
2022/10/29 06:18:57;;;;;;;1.57;1.00;;;16.30;98.20;;;;;;5022616;28;20965;-82
2022/10/29 06:21:25;;;;;;;1.53;1.00;;;16.30;98.20;;;;;;4998753;28;20496;-82
2022/10/29 06:24:35;;;;;;;1.57;0.93;;;16.30;98.20;;;;;;5008550;28;20552;-82
2022/10/29 06:27:02;;;;;;;1.60;1.00;;;16.30;98.20;;;;;;5005950;22;20473;-77
2022/10/29 06:29:29;;;;;;;1.57;0.90;;;16.30;98.20;;;;;;5022287;28;20455;-77
2022/10/29 06:31:56;;;;;;;1.53;0.90;;;16.40;98.20;;;;;;5024180;28;20591;-77
2022/10/29 06:34:24;;;;;;;1.60;0.93;;;16.40;98.20;;;;;;5034279;28;20487;-77
2022/10/29 06:36:51;;;;;;;1.57;1.00;;;16.40;98.20;;;;;;5024507;28;20776;-78
2022/10/29 06:39:17;;;;;;;1.60;1.10;;;16.40;98.20;;;;;;5009691;28;20476;-77
2022/10/29 06:41:44;;;;;;;1.57;0.97;;;16.40;98.20;;;;;;4996176;28;20496;-76
2022/10/29 06:44:11;;;;;;;1.50;0.90;;;16.40;98.20;;;;;;5010960;28;20467;-77
2022/10/29 06:46:38;;;;;;;1.53;1.00;;;16.40;98.20;;;;;;5005332;28;20480;-78
2022/10/29 06:49:05;;;;;;;1.50;0.90;;;16.40;98.20;;;;;;5018290;28;20521;-78
2022/10/29 06:51:33;;;;;;;1.50;1.00;;;16.40;98.20;;;;;;5003735;28;20479;-77
2022/10/29 06:53:59;;;;;;;1.53;1.00;;;16.40;98.20;;;;;;5018904;28;20511;-77
2022/10/29 06:56:26;;;;;;;1.50;1.00;;;16.40;98.20;;;;;;4999881;28;20476;-76
2022/10/29 06:58:53;;;;;;;1.57;1.00;;;16.50;98.20;;;;;;5003846;28;20532;-77
2022/10/29 07:01:20;;;;;;;1.70;1.30;;;16.50;98.20;;;;;;4996144;28;20475;-77
2022/10/29 07:03:46;;;;;;;1.57;1.00;;;16.50;98.20;;;;;;5018205;28;20626;-78
2022/10/29 07:06:13;;;;;;;1.53;0.90;;;16.50;98.20;;;;;;5003122;28;20467;-75
2022/10/29 07:08:41;;;;;;;1.50;0.90;;;16.50;98.20;;;;;;5023708;28;20487;-77
2022/10/29 07:11:08;;;;;;;1.60;1.00;;;16.50;98.20;;;;;;5002589;28;20876;-78
2022/10/29 07:13:36;;;;;;;1.60;1.10;;;16.60;98.20;;;;;;5011727;28;20571;-78
2022/10/29 07:16:03;;;;;;;1.57;1.00;;;16.60;98.20;;;;;;5002205;28;20935;-77
2022/10/29 07:18:31;;;;;;;1.60;1.00;;;16.60;98.20;;;;;;5020903;28;20526;-76
2022/10/29 07:20:59;;;;;;;1.50;1.00;;;16.60;98.20;;;;;;4994447;28;20543;-76
2022/10/29 07:23:26;;;;;;;1.57;1.00;;;16.70;98.20;;;;;;5006677;28;20457;-74
2022/10/29 07:25:55;;;;;;;1.60;1.00;;;16.80;98.20;;;;;;4999779;28;20861;-74
2022/10/29 07:28:24;;;;;;;1.53;0.90;;;16.80;98.20;;;;;;5001424;28;20488;-74
2022/10/29 07:30:53;;;;;;;2.07;1.87;;;16.90;98.20;;;;;;4992878;28;20933;-75
2022/10/29 07:33:20;;;;;;;1.50;1.00;;;16.90;98.20;;;;;;5006388;28;20494;-75
2022/10/29 07:35:47;;;;;;;1.60;1.00;;;17.00;98.20;;;;;;5006957;28;20500;-74
2022/10/29 07:38:14;;;;;;;1.57;1.00;;;17.00;98.20;;;;;;4991687;28;20511;-75
2022/10/29 07:40:48;;;;;;;1.60;0.90;;;17.10;98.20;;;;;;5002479;28;20456;-75
2022/10/29 07:43:16;;;;;;;1.60;1.00;;;17.10;98.20;;;;;;4994074;28;20481;-74
2022/10/29 07:45:45;;;;;;;1.60;1.10;;;17.10;98.20;;;;;;5006484;28;20472;-75
2022/10/29 07:48:12;;;;;;;1.60;0.93;;;17.20;98.20;;;;;;4993536;28;20499;-75
2022/10/29 07:50:39;;;;;;;1.57;1.00;;;17.20;98.20;;;;;;5007022;28;20475;-75
2022/10/29 07:53:07;;;;;;;1.60;1.00;;;17.30;98.20;;;;;;4997086;28;20483;-76
2022/10/29 07:55:34;;;;;;;1.60;0.90;;;17.30;98.20;;;;;;5003001;28;20464;-76
2022/10/29 07:58:03;;;;;;;1.57;0.90;;;17.30;98.20;;;;;;5009150;28;20531;-77
2022/10/29 08:00:33;;;;;;;1.60;1.00;;;17.40;98.20;;;;;;5005821;28;20460;-78
2022/10/29 08:03:00;;;;;;;1.60;1.00;;;17.40;98.20;;;;;;4999361;28;21042;-77
2022/10/29 08:05:29;;;;;;;1.50;0.90;;;17.40;98.20;;;;;;5013144;28;20494;-77
2022/10/29 08:07:56;;;;;;;2.07;1.23;;;17.50;98.20;;;;;;5016721;28;20478;-77
2022/10/29 08:10:24;;;;;;;1.57;0.90;;;17.50;98.20;;;;;;5014128;28;20556;-74
2022/10/29 08:12:51;;;;;;;1.90;1.70;;;17.50;98.20;;;;;;4998211;28;20578;-79
2022/10/29 08:15:18;;;;;;;1.60;1.00;;;17.60;98.20;;;;;;5014304;28;20480;-77
2022/10/29 08:17:47;;;;;;;1.63;1.00;;;17.60;98.20;;;;;;5015463;28;20487;-77
2022/10/29 08:20:14;;;;;;;1.60;1.00;;;17.60;98.20;;;;;;5014154;28;20739;-77
2022/10/29 08:22:42;;;;;;;1.60;1.00;;;17.60;98.20;;;;;;4999236;28;20488;-76
2022/10/29 08:25:09;;;;;;;1.53;0.90;;;17.70;98.20;;;;;;5011789;28;20498;-79
2022/10/29 08:27:36;;;;;;;1.60;0.90;;;17.80;98.20;;;;;;4998392;28;20906;-76
2022/10/29 08:30:04;;;;;;;1.50;0.90;;;17.80;98.20;;;;;;5008707;28;20487;-76
2022/10/29 08:32:30;;;;;;;1.60;0.97;;;17.80;98.20;;;;;;5012518;28;21015;-77
2022/10/29 08:35:00;;;;;;;1.60;1.00;;;17.90;98.20;;;;;;5013816;28;20487;-76
2022/10/29 08:37:27;;;;;;;1.60;1.03;;;18.10;98.20;;;;;;4996475;28;20590;-76
2022/10/29 08:39:54;;;;;;;1.60;1.00;;;18.20;98.20;;;;;;5009538;28;20563;-75
2022/10/29 08:42:34;;;;;;;1.60;1.00;;;18.30;98.20;;;;;;5009294;28;20483;-76
2022/10/29 08:45:20;;;;;;;2.20;2.00;;;18.40;98.20;;;;;;5007617;28;20794;-76
2022/10/29 08:48:04;;;;;;;1.60;0.90;;;18.50;98.20;;;;;;4997845;28;21304;-77
2022/10/29 08:50:39;;;;;;;3.57;2.60;;;18.70;98.20;;;;;;5005240;28;20546;-77
2022/10/29 08:53:14;;;;;;;1.70;1.20;;;18.90;98.20;;;;;;5012138;28;20490;-76
2022/10/29 08:55:42;;;;;;;1.70;1.37;;;19.00;98.20;;;;;;5008193;28;20837;-76
2022/10/29 08:58:19;;;;;;;1.60;0.90;;;19.30;98.20;;;;;;4994804;28;20484;-76
2022/10/29 09:00:49;;;;;;;1.60;0.90;;;19.40;98.20;;;;;;5008027;28;20543;-76
2022/10/29 09:03:16;;;;;;;1.60;0.90;;;19.60;98.20;;;;;;5014929;28;20850;-76
2022/10/29 09:05:53;;;;;;;1.60;0.90;;;19.70;98.20;;;;;;5007679;28;20460;-75
2022/10/29 09:08:31;;;;;;;1.60;0.90;;;19.80;98.20;;;;;;4994259;28;20487;-76
2022/10/29 09:11:06;;;;;;;1.60;0.90;;;20.00;98.20;;;;;;4994373;28;20828;-75
2022/10/29 09:13:46;;;;;;;3.20;1.93;;;20.20;98.20;;;;;;5009536;28;20555;-74
2022/10/29 09:16:28;;;;;;;1.60;0.90;;;20.20;98.20;;;;;;4998608;28;20510;-76
2022/10/29 09:19:18;;;;;;;1.60;1.00;;;20.20;98.20;;;;;;5001901;28;20506;-77
2022/10/29 09:21:56;;;;;;;1.60;0.90;;;20.30;98.20;;;;;;4995392;28;20490;-76
2022/10/29 09:24:29;;;;;;;1.60;0.90;;;20.20;98.20;;;;;;5015261;28;20472;-77
2022/10/29 09:26:59;;;;;;;1.60;0.90;;;20.30;98.20;;;;;;4996522;28;20496;-76
2022/10/29 09:30:09;;;;;;;1.60;0.90;;;20.40;98.20;;;;;;5005557;28;20965;-75
2022/10/29 09:32:39;;;;;;;1.60;0.90;;;20.50;98.20;;;;;;4920961;28;20490;-77
2022/10/29 09:35:13;;;;;;;1.60;0.90;;;20.60;98.20;;;;;;4999579;28;20659;-77
2022/10/29 09:37:47;;;;;;;1.60;0.90;;;20.70;98.20;;;;;;4996219;28;20514;-76
2022/10/29 09:40:22;;;;;;;1.60;1.10;;;20.70;98.20;;;;;;5008909;28;20953;-74
2022/10/29 09:42:50;;;;;;;1.60;1.00;;;20.80;98.20;;;;;;4992575;28;20546;-75
2022/10/29 09:45:20;;;;;;;1.57;0.97;;;20.80;98.20;;;;;;5005826;28;20820;-76
2022/10/29 09:47:55;;;;;;;1.57;0.90;;;20.90;98.20;;;;;;4994126;28;20492;-75
2022/10/29 09:50:31;;;;;;;1.60;0.90;;;20.90;98.20;;;;;;5005013;28;20462;-73
2022/10/29 09:52:59;;;;;;;1.60;0.90;;;21.00;98.20;;;;;;4992312;28;20481;-74
2022/10/29 09:55:30;;;;;;;1.60;0.90;;;21.10;98.20;;;;;;5004098;28;20484;-74
2022/10/29 09:57:58;;;;;;;1.53;0.90;;;21.10;98.20;;;;;;4987461;28;21048;-75
2022/10/29 10:00:26;;;;;;;1.53;0.90;;;21.10;98.20;;;;;;5006157;28;20464;-75
2022/10/29 10:02:59;;;;;;;1.57;1.00;;;21.10;98.20;;;;;;4992098;28;20498;-75
2022/10/29 10:05:28;;;;;;;1.60;0.90;;;21.10;98.20;;;;;;5002968;28;20464;-75
2022/10/29 10:08:11;;;;;;;1.57;0.90;;;21.10;98.20;;;;;;4989007;28;20489;-74
2022/10/29 10:10:51;;;;;;;1.57;0.90;;;21.10;98.20;;;;;;5003208;28;20625;-74
2022/10/29 10:13:20;;;;;;;1.57;0.90;;;21.10;98.20;;;;;;4994270;28;20913;-75
2022/10/29 10:15:52;;;;;;;4.13;3.83;;;21.00;98.20;;;;;;5005918;28;20789;-76
2022/10/29 10:18:21;;;;;;;1.57;0.90;;;21.00;98.20;;;;;;4992518;28;20550;-73
2022/10/29 10:21:00;;;;;;;1.60;0.90;;;21.00;98.20;;;;;;5000261;28;20464;-76
2022/10/29 10:23:30;;;;;;;1.57;0.90;;;21.00;98.20;;;;;;5023818;28;20467;-74
2022/10/29 10:25:59;;;;;;;1.53;0.90;;;20.90;98.20;;;;;;4999349;28;20499;-77
2022/10/29 10:28:28;;;;;;;1.57;0.90;;;20.80;98.20;;;;;;4998661;28;20536;-75
2022/10/29 10:31:15;;;;;;;1.60;1.10;;;20.80;98.20;;;;;;4993858;28;20471;-74
2022/10/29 10:33:49;;;;;;;1.53;0.90;;;20.80;98.20;;;;;;5002265;28;20474;-74
2022/10/29 10:36:16;;;;;;;1.60;0.90;;;20.70;98.20;;;;;;4991283;28;20480;-75
2022/10/29 10:38:49;;;;;;;1.60;1.10;;;20.70;98.20;;;;;;5003468;28;20488;-77
2022/10/29 10:41:22;;;;;;;1.70;1.20;;;20.70;98.20;;;;;;4995058;28;20567;-75
2022/10/29 10:43:50;;;;;;;1.50;0.90;;;20.60;98.20;;;;;;5001822;28;21021;-76
2022/10/29 10:46:22;;;;;;;1.53;0.90;;;20.60;98.20;;;;;;4989751;28;20473;-77
2022/10/29 10:48:59;;;;;;;1.60;1.10;;;20.60;98.20;;;;;;5001404;28;20488;-76
2022/10/29 10:51:29;;;;;;;1.53;0.90;;;20.60;98.20;;;;;;4995312;28;20477;-77
2022/10/29 10:53:57;;;;;;;1.53;0.93;;;20.60;98.20;;;;;;5017152;28;20830;-74
2022/10/29 10:56:24;;;;;;;1.60;0.90;;;20.60;98.20;;;;;;4998426;28;20481;-76
2022/10/29 10:59:01;;;;;;;1.53;0.90;;;20.60;98.20;;;;;;5015752;28;21064;-77
2022/10/29 11:01:34;;;;;;;1.60;1.00;;;20.50;98.20;;;;;;4993123;28;20988;-75
2022/10/29 11:04:09;;;;;;;1.53;0.90;;;20.50;98.20;;;;;;5007319;28;20455;-76
2022/10/29 11:06:40;;;;;;;1.60;0.90;;;20.60;98.20;;;;;;4993066;28;20494;-76
2022/10/29 11:09:17;;;;;;;1.60;1.00;;;20.60;98.20;;;;;;5002242;28;20461;-76
2022/10/29 11:11:47;;;;;;;1.60;0.90;;;20.60;98.20;;;;;;4997770;28;20494;-75
2022/10/29 11:14:21;;;;;;;1.50;0.90;;;20.60;98.20;;;;;;5011917;28;21306;-75
2022/10/29 11:16:53;;;;;;;1.57;0.90;;;20.70;98.20;;;;;;4994429;28;20522;-77
2022/10/29 11:19:25;;;;;;;1.53;0.90;;;20.70;98.20;;;;;;5008305;28;20551;-76
2022/10/29 11:22:03;;;;;;;1.57;0.90;;;20.80;98.20;;;;;;4997680;28;20494;-75
2022/10/29 11:24:42;;;;;;;1.60;1.30;;;21.00;98.20;;;;;;5002040;28;20469;-75
2022/10/29 11:27:20;;;;;;;1.60;1.00;;;21.10;98.20;;;;;;4998043;28;20964;-74
2022/10/29 11:29:53;;;;;;;1.57;0.90;;;21.20;98.20;;;;;;5005213;28;20468;-74
2022/10/29 11:32:25;;;;;;;1.50;0.97;;;21.40;98.20;;;;;;5002049;28;20487;-77
2022/10/29 11:35:02;;;;;;;1.60;1.03;;;21.50;98.20;;;;;;5007932;28;20484;-75
2022/10/29 11:37:33;;;;;;;1.60;1.00;;;21.70;98.20;;;;;;4998176;28;20490;-78
2022/10/29 11:40:03;;;;;;;1.50;0.90;;;21.80;98.20;;;;;;5013162;28;20467;-74
2022/10/29 11:42:31;;;;;;;1.53;0.90;;;21.90;98.20;;;;;;4994132;28;20973;-74
2022/10/29 11:44:59;;;;;;;1.57;0.90;;;21.90;98.20;;;;;;5007343;28;20459;-77
2022/10/29 11:47:44;;;;;;;1.57;0.97;;;22.00;98.20;;;;;;4992082;28;20868;-77
2022/10/29 11:50:25;;;;;;;1.53;0.90;;;22.20;98.20;;;;;;5009934;28;20467;-77
2022/10/29 11:52:57;;;;;;;1.53;0.90;;;22.30;98.10;;;;;;4996810;28;20480;-76
2022/10/29 11:55:38;;;;;;;1.50;0.90;;;22.30;97.90;;;;;;5006516;28;20502;-76
2022/10/29 11:58:16;;;;;;;1.50;0.90;;;22.40;98.20;;;;;;4989689;28;20957;-77
2022/10/29 12:00:55;;;;;;;1.53;0.90;;;22.40;98.10;;;;;;5002932;28;20471;-77
2022/10/29 12:03:45;;;;;;;1.57;0.90;;;22.40;97.70;;;;;;4992165;28;20539;-75
2022/10/29 12:06:18;;;;;;;1.70;1.43;;;22.40;97.40;;;;;;4997369;28;20492;-75
2022/10/29 12:08:58;;;;;;;1.60;0.90;;;22.30;97.70;;;;;;5000515;28;20881;-76
2022/10/29 12:11:33;;;;;;;1.60;1.00;;;22.20;98.00;;;;;;4998376;28;20509;-74
2022/10/29 12:14:10;;;;;;;1.57;0.90;;;22.10;97.90;;;;;;5009805;28;20472;-77
2022/10/29 12:16:47;;;;;;;1.60;1.20;;;22.10;98.20;;;;;;4998610;28;20994;-76
2022/10/29 12:19:28;;;;;;;1.53;0.90;;;22.10;98.20;;;;;;5008742;28;20920;-75
2022/10/29 12:22:01;;;;;;;3.10;2.90;;;22.20;98.20;;;;;;5007303;28;20489;-77
2022/10/29 12:24:46;;;;;;;1.53;0.90;;;22.30;98.00;;;;;;5012665;28;20460;-77
2022/10/29 12:27:21;;;;;;;1.80;1.30;;;22.40;97.70;;;;;;4993966;28;20499;-75
2022/10/29 12:29:57;;;;;;;1.50;0.90;;;22.50;97.50;;;;;;5006992;28;20819;-75
2022/10/29 12:32:31;;;;;;;1.60;1.10;;;22.70;97.20;;;;;;4994806;28;20561;-76
2022/10/29 12:35:02;;;;;;;1.57;0.90;;;22.70;96.40;;;;;;5002397;28;20636;-75
2022/10/29 12:37:41;;;;;;;1.50;0.90;;;22.80;96.50;;;;;;5010035;28;20914;-77
2022/10/29 12:40:16;;;;;;;2.17;1.97;;;23.00;96.50;;;;;;5012653;28;20461;-78
2022/10/29 12:42:46;;;;;;;1.53;0.90;;;23.20;96.10;;;;;;4999279;28;20643;-76
2022/10/29 12:45:29;;;;;;;1.60;1.00;;;23.30;95.50;;;;;;5006497;28;20933;-76
2022/10/29 12:48:05;;;;;;;1.70;1.40;;;23.50;95.80;;;;;;4994086;28;20879;-75
2022/10/29 12:50:42;;;;;;;1.50;0.90;;;23.70;94.40;;;;;;5006323;28;20482;-76
2022/10/29 12:53:18;;;;;;;1.60;0.90;;;23.70;94.30;;;;;;5010722;28;20475;-77
2022/10/29 12:55:46;;;;;;;1.57;0.90;;;23.80;94.40;;;;;;5004617;28;20522;-77
2022/10/29 12:58:51;;;;;;;1.50;0.90;;;23.90;94.80;;;;;;4993776;28;20492;-77
2022/10/29 13:01:43;;;;;;;1.60;0.90;;;24.00;94.30;;;;;;4997508;28;20491;-78
2022/10/29 13:04:32;;;;;;;1.57;0.90;;;24.00;94.50;;;;;;5006165;28;20470;-74
2022/10/29 13:07:02;;;;;;;1.53;0.90;;;24.00;93.10;;;;;;5005350;28;20574;-77
2022/10/29 13:09:31;;;;;;;1.50;0.90;;;24.00;93.60;;;;;;5000680;28;20480;-74
2022/10/29 13:11:59;;;;;;;1.60;0.90;;;24.00;93.40;;;;;;5001815;28;20487;-76
2022/10/29 13:14:35;;;;;;;1.80;1.30;;;23.90;93.70;;;;;;5010936;28;21000;-75
2022/10/29 13:17:04;;;;;;;1.57;0.90;;;23.80;93.70;;;;;;4991569;28;20570;-76